sensor_id;sensor_type;location;lat;lon;timestamp;pressure;altitude;pressure_sealevel;temperature;humidity
39449;BME280;25151;45.566;9.382;2024-03-29T00:02:10;98974.97;;;20.13;60.73
39449;BME280;25151;45.566;9.382;2024-03-29T00:04:37;98974.06;;;20.17;60.22
39449;BME280;25151;45.566;9.382;2024-03-29T00:07:04;98985.25;;;20.17;60.45
39449;BME280;25151;45.566;9.382;2024-03-29T00:09:31;98987.72;;;20.14;60.22
39449;BME280;25151;45.566;9.382;2024-03-29T00:11:59;98993.94;;;20.09;60.49
39449;BME280;25151;45.566;9.382;2024-03-29T00:14:27;99007.00;;;20.12;60.52
39449;BME280;25151;45.566;9.382;2024-03-29T00:16:54;99001.41;;;20.12;60.29
39449;BME280;25151;45.566;9.382;2024-03-29T00:19:21;98995.19;;;20.08;60.42
39449;BME280;25151;45.566;9.382;2024-03-29T00:21:48;98986.03;;;20.08;60.52
39449;BME280;25151;45.566;9.382;2024-03-29T00:24:17;98997.66;;;20.06;60.32
39449;BME280;25151;45.566;9.382;2024-03-29T00:26:44;98996.28;;;20.02;60.40
39449;BME280;25151;45.566;9.382;2024-03-29T00:29:12;99009.19;;;20.08;60.50
39449;BME280;25151;45.566;9.382;2024-03-29T00:31:40;99014.16;;;20.04;60.33
39449;BME280;25151;45.566;9.382;2024-03-29T00:34:07;99014.00;;;20.08;60.29
39449;BME280;25151;45.566;9.382;2024-03-29T00:36:34;99024.41;;;20.07;60.64
39449;BME280;25151;45.566;9.382;2024-03-29T00:39:03;99020.06;;;20.06;60.46
39449;BME280;25151;45.566;9.382;2024-03-29T00:41:30;99025.66;;;20.06;60.22
39449;BME280;25151;45.566;9.382;2024-03-29T00:43:57;99039.66;;;20.06;60.25
39449;BME280;25151;45.566;9.382;2024-03-29T00:46:25;99040.91;;;20.05;60.42
39449;BME280;25151;45.566;9.382;2024-03-29T00:48:52;99041.03;;;20.02;60.24
39449;BME280;25151;45.566;9.382;2024-03-29T00:51:19;99046.63;;;20.02;60.49
39449;BME280;25151;45.566;9.382;2024-03-29T00:53:47;99042.91;;;20.05;60.40
39449;BME280;25151;45.566;9.382;2024-03-29T00:56:15;99038.72;;;20.00;60.52
39449;BME280;25151;45.566;9.382;2024-03-29T00:58:42;99037.94;;;20.00;60.25
39449;BME280;25151;45.566;9.382;2024-03-29T01:01:09;99039.50;;;20.01;60.41
39449;BME280;25151;45.566;9.382;2024-03-29T01:03:36;99040.41;;;19.98;60.32
39449;BME280;25151;45.566;9.382;2024-03-29T01:06:04;99045.25;;;19.97;60.34
39449;BME280;25151;45.566;9.382;2024-03-29T01:08:31;99044.31;;;20.00;60.52
39449;BME280;25151;45.566;9.382;2024-03-29T01:10:58;99045.25;;;19.97;60.60
39449;BME280;25151;45.566;9.382;2024-03-29T01:13:25;99046.50;;;19.96;60.52
39449;BME280;25151;45.566;9.382;2024-03-29T01:15:52;99046.94;;;19.95;60.38
39449;BME280;25151;45.566;9.382;2024-03-29T01:18:19;99040.56;;;19.94;60.38
39449;BME280;25151;45.566;9.382;2024-03-29T01:20:46;99044.47;;;19.97;60.38
39449;BME280;25151;45.566;9.382;2024-03-29T01:23:13;99046.50;;;19.96;60.23
39449;BME280;25151;45.566;9.382;2024-03-29T01:25:40;99052.84;;;19.97;60.46
39449;BME280;25151;45.566;9.382;2024-03-29T01:28:07;99054.09;;;19.96;60.39
39449;BME280;25151;45.566;9.382;2024-03-29T01:30:37;99057.06;;;19.92;60.42
39449;BME280;25151;45.566;9.382;2024-03-29T01:33:04;99069.47;;;19.91;60.36
39449;BME280;25151;45.566;9.382;2024-03-29T01:35:31;99072.25;;;19.91;60.35
39449;BME280;25151;45.566;9.382;2024-03-29T01:37:59;99078.19;;;19.93;60.16
39449;BME280;25151;45.566;9.382;2024-03-29T01:40:26;99081.13;;;19.89;60.46
39449;BME280;25151;45.566;9.382;2024-03-29T01:42:53;99076.78;;;19.88;60.52
39449;BME280;25151;45.566;9.382;2024-03-29T01:45:20;99072.72;;;19.89;60.25
39449;BME280;25151;45.566;9.382;2024-03-29T01:47:48;99078.81;;;19.88;60.49
39449;BME280;25151;45.566;9.382;2024-03-29T01:50:15;99085.47;;;19.90;60.53
39449;BME280;25151;45.566;9.382;2024-03-29T01:52:43;99084.69;;;19.90;60.26
39449;BME280;25151;45.566;9.382;2024-03-29T01:55:09;99074.44;;;19.87;60.24
39449;BME280;25151;45.566;9.382;2024-03-29T01:57:36;99077.56;;;19.89;60.57
39449;BME280;25151;45.566;9.382;2024-03-29T02:00:04;99077.56;;;19.89;60.31
39449;BME280;25151;45.566;9.382;2024-03-29T02:02:33;99075.38;;;19.84;60.53
39449;BME280;25151;45.566;9.382;2024-03-29T02:05:01;99074.13;;;19.85;60.19
39449;BME280;25151;45.566;9.382;2024-03-29T02:07:28;99074.44;;;19.87;60.24
39449;BME280;25151;45.566;9.382;2024-03-29T02:09:55;99068.84;;;19.87;60.33
39449;BME280;25151;45.566;9.382;2024-03-29T02:12:22;99068.53;;;19.85;60.41
39449;BME280;25151;45.566;9.382;2024-03-29T02:14:50;99086.88;;;19.86;60.17
39449;BME280;25151;45.566;9.382;2024-03-29T02:17:17;99084.97;;;19.83;60.45
39449;BME280;25151;45.566;9.382;2024-03-29T02:19:44;99088.25;;;19.81;60.50
39449;BME280;25151;45.566;9.382;2024-03-29T02:22:14;99088.13;;;19.85;60.40
39449;BME280;25151;45.566;9.382;2024-03-29T02:24:42;99078.75;;;19.79;60.28
39449;BME280;25151;45.566;9.382;2024-03-29T02:27:09;99075.81;;;19.82;60.47
39449;BME280;25151;45.566;9.382;2024-03-29T02:29:37;99073.16;;;19.79;60.47
39449;BME280;25151;45.566;9.382;2024-03-29T02:32:04;99086.22;;;19.82;60.29
39449;BME280;25151;45.566;9.382;2024-03-29T02:34:31;99087.63;;;19.77;60.33
39449;BME280;25151;45.566;9.382;2024-03-29T02:36:58;99084.06;;;19.77;60.42
39449;BME280;25151;45.566;9.382;2024-03-29T02:39:26;99084.34;;;19.79;60.58
39449;BME280;25151;45.566;9.382;2024-03-29T02:41:53;99080.00;;;19.78;60.38
39449;BME280;25151;45.566;9.382;2024-03-29T02:44:20;99082.03;;;19.77;60.39
39449;BME280;25151;45.566;9.382;2024-03-29T02:46:47;99091.66;;;19.76;60.62
39449;BME280;25151;45.566;9.382;2024-03-29T02:49:15;99090.84;;;19.76;60.42
39449;BME280;25151;45.566;9.382;2024-03-29T02:51:42;99092.75;;;19.79;60.61
39449;BME280;25151;45.566;9.382;2024-03-29T02:54:09;99087.16;;;19.79;60.41
39449;BME280;25151;45.566;9.382;2024-03-29T02:56:37;99093.22;;;19.77;60.41
39449;BME280;25151;45.566;9.382;2024-03-29T02:59:04;99109.22;;;19.77;60.65
39449;BME280;25151;45.566;9.382;2024-03-29T03:01:31;99111.69;;;19.75;60.42
39449;BME280;25151;45.566;9.382;2024-03-29T03:03:59;99110.13;;;19.74;60.50
39449;BME280;25151;45.566;9.382;2024-03-29T03:06:26;99114.47;;;19.75;60.51
39449;BME280;25151;45.566;9.382;2024-03-29T03:08:53;99120.56;;;19.73;60.60
39449;BME280;25151;45.566;9.382;2024-03-29T03:11:38;99127.41;;;19.72;60.40
39449;BME280;25151;45.566;9.382;2024-03-29T03:14:05;99133.00;;;19.72;60.57
39449;BME280;25151;45.566;9.382;2024-03-29T03:16:32;99146.03;;;19.75;60.34
39449;BME280;25151;45.566;9.382;2024-03-29T03:18:59;99142.47;;;19.75;60.45
39449;BME280;25151;45.566;9.382;2024-03-29T03:21:26;99129.38;;;19.72;60.45
39449;BME280;25151;45.566;9.382;2024-03-29T03:23:53;99132.19;;;19.72;60.50
39449;BME280;25151;45.566;9.382;2024-03-29T03:26:20;99147.28;;;19.74;60.34
39449;BME280;25151;45.566;9.382;2024-03-29T03:28:47;99153.34;;;19.73;60.49
39449;BME280;25151;45.566;9.382;2024-03-29T03:31:14;99160.97;;;19.72;60.37
39449;BME280;25151;45.566;9.382;2024-03-29T03:33:41;99156.28;;;19.69;60.66
39449;BME280;25151;45.566;9.382;2024-03-29T03:36:08;99156.13;;;19.73;60.41
39449;BME280;25151;45.566;9.382;2024-03-29T03:38:35;99150.69;;;19.69;60.36
39449;BME280;25151;45.566;9.382;2024-03-29T03:41:04;99135.91;;;19.69;60.43
39449;BME280;25151;45.566;9.382;2024-03-29T03:43:31;99133.44;;;19.71;60.44
39449;BME280;25151;45.566;9.382;2024-03-29T03:46:02;99133.44;;;19.71;60.64
39449;BME280;25151;45.566;9.382;2024-03-29T03:48:29;99147.41;;;19.71;60.64
39449;BME280;25151;45.566;9.382;2024-03-29T03:50:56;99146.63;;;19.70;60.54
39449;BME280;25151;45.566;9.382;2024-03-29T03:53:24;99151.59;;;19.66;60.58
39449;BME280;25151;45.566;9.382;2024-03-29T03:55:50;99150.81;;;19.65;60.47
39449;BME280;25151;45.566;9.382;2024-03-29T03:58:17;99171.03;;;19.70;60.43
39449;BME280;25151;45.566;9.382;2024-03-29T04:00:45;99186.28;;;19.69;60.41
39449;BME280;25151;45.566;9.382;2024-03-29T04:03:12;99180.03;;;19.64;60.47
39449;BME280;25151;45.566;9.382;2024-03-29T04:05:39;99166.50;;;19.63;60.71
39449;BME280;25151;45.566;9.382;2024-03-29T04:08:06;99148.78;;;19.66;60.51
39449;BME280;25151;45.566;9.382;2024-03-29T04:10:38;99156.41;;;19.65;60.61
39449;BME280;25151;45.566;9.382;2024-03-29T04:13:06;99169.16;;;19.67;60.60
39449;BME280;25151;45.566;9.382;2024-03-29T04:15:33;99162.91;;;19.62;60.52
39449;BME280;25151;45.566;9.382;2024-03-29T04:18:00;99170.41;;;19.65;60.44
39449;BME280;25151;45.566;9.382;2024-03-29T04:20:28;99157.75;;;19.61;60.42
39449;BME280;25151;45.566;9.382;2024-03-29T04:22:55;99151.41;;;19.60;60.62
39449;BME280;25151;45.566;9.382;2024-03-29T04:25:23;99154.09;;;19.64;60.65
39449;BME280;25151;45.566;9.382;2024-03-29T04:27:50;99144.88;;;19.63;60.64
39449;BME280;25151;45.566;9.382;2024-03-29T04:30:17;99151.28;;;19.64;60.75
39449;BME280;25151;45.566;9.382;2024-03-29T04:32:44;99149.81;;;19.59;60.67
39449;BME280;25151;45.566;9.382;2024-03-29T04:35:11;99157.00;;;19.60;60.49
39449;BME280;25151;45.566;9.382;2024-03-29T04:37:38;99158.56;;;19.61;60.41
39449;BME280;25151;45.566;9.382;2024-03-29T04:40:06;99174.09;;;19.62;60.69
39449;BME280;25151;45.566;9.382;2024-03-29T04:42:33;99176.91;;;19.62;60.55
39449;BME280;25151;45.566;9.382;2024-03-29T04:45:00;99186.53;;;19.61;60.56
39449;BME280;25151;45.566;9.382;2024-03-29T04:47:28;99182.50;;;19.62;60.48
39449;BME280;25151;45.566;9.382;2024-03-29T04:49:55;99176.56;;;19.60;60.72
39449;BME280;25151;45.566;9.382;2024-03-29T04:52:22;99181.81;;;19.58;60.67
39449;BME280;25151;45.566;9.382;2024-03-29T04:54:51;99190.56;;;19.60;60.53
39449;BME280;25151;45.566;9.382;2024-03-29T04:57:19;99196.13;;;19.60;60.49
39449;BME280;25151;45.566;9.382;2024-03-29T04:59:46;99207.31;;;19.60;60.52
39449;BME280;25151;45.566;9.382;2024-03-29T05:02:13;99206.56;;;19.60;60.45
39449;BME280;25151;45.566;9.382;2024-03-29T05:04:40;99209.78;;;19.58;60.64
39449;BME280;25151;45.566;9.382;2024-03-29T05:07:07;99213.50;;;19.55;60.83
39449;BME280;25151;45.566;9.382;2024-03-29T05:09:34;99216.28;;;19.55;60.67
39449;BME280;25151;45.566;9.382;2024-03-29T05:12:01;99216.28;;;19.55;60.54
39449;BME280;25151;45.566;9.382;2024-03-29T05:14:28;99236.50;;;19.59;60.66
39449;BME280;25151;45.566;9.382;2024-03-29T05:16:55;99220.31;;;19.54;60.55
39449;BME280;25151;45.566;9.382;2024-03-29T05:19:22;99232.16;;;19.58;60.46
39449;BME280;25151;45.566;9.382;2024-03-29T05:21:49;99236.97;;;19.58;60.47
39449;BME280;25151;45.566;9.382;2024-03-29T05:24:17;99235.44;;;19.57;60.57
39449;BME280;25151;45.566;9.382;2024-03-29T05:26:45;99218.00;;;19.53;60.33
39449;BME280;25151;45.566;9.382;2024-03-29T05:29:12;99223.59;;;19.53;60.60
39449;BME280;25151;45.566;9.382;2024-03-29T05:31:40;99231.97;;;19.53;60.52
39449;BME280;25151;45.566;9.382;2024-03-29T05:34:10;99238.00;;;19.51;60.62
39449;BME280;25151;45.566;9.382;2024-03-29T05:36:37;99238.00;;;19.51;60.56
39449;BME280;25151;45.566;9.382;2024-03-29T05:39:05;99236.47;;;19.50;60.48
39449;BME280;25151;45.566;9.382;2024-03-29T05:41:32;99243.47;;;19.55;60.58
39449;BME280;25151;45.566;9.382;2024-03-29T05:43:59;99239.25;;;19.50;60.80
39449;BME280;25151;45.566;9.382;2024-03-29T05:46:26;99246.75;;;19.53;60.59
39449;BME280;25151;45.566;9.382;2024-03-29T05:48:53;99263.53;;;19.53;60.64
39449;BME280;25151;45.566;9.382;2024-03-29T05:51:21;99279.06;;;19.54;60.48
39449;BME280;25151;45.566;9.382;2024-03-29T05:53:48;99277.50;;;19.53;60.54
39449;BME280;25151;45.566;9.382;2024-03-29T05:56:18;99272.16;;;19.46;60.65
39449;BME280;25151;45.566;9.382;2024-03-29T05:58:45;99289.59;;;19.50;60.55
39449;BME280;25151;45.566;9.382;2024-03-29T06:01:12;99286.31;;;19.52;60.73
39449;BME280;25151;45.566;9.382;2024-03-29T06:03:39;99281.97;;;19.51;60.68
39449;BME280;25151;45.566;9.382;2024-03-29T06:06:07;99288.34;;;19.51;60.73
39449;BME280;25151;45.566;9.382;2024-03-29T06:08:34;99289.59;;;19.50;60.74
39449;BME280;25151;45.566;9.382;2024-03-29T06:11:01;99285.25;;;19.49;60.77
39449;BME280;25151;45.566;9.382;2024-03-29T06:13:28;99265.31;;;19.47;60.78
39449;BME280;25151;45.566;9.382;2024-03-29T06:16:13;99266.09;;;19.48;60.70
39449;BME280;25151;45.566;9.382;2024-03-29T06:19:02;99270.00;;;19.50;60.71
39449;BME280;25151;45.566;9.382;2024-03-29T06:21:31;99265.66;;;19.49;60.72
39449;BME280;25151;45.566;9.382;2024-03-29T06:24:08;99264.88;;;19.49;60.55
39449;BME280;25151;45.566;9.382;2024-03-29T06:26:38;99265.78;;;19.46;60.66
39449;BME280;25151;45.566;9.382;2024-03-29T06:29:08;99272.16;;;19.46;60.63
39449;BME280;25151;45.566;9.382;2024-03-29T06:31:38;99279.66;;;19.49;60.76
39449;BME280;25151;45.566;9.382;2024-03-29T06:34:05;99272.34;;;19.52;60.75
39449;BME280;25151;45.566;9.382;2024-03-29T06:36:33;99258.06;;;19.50;60.71
39449;BME280;25151;45.566;9.382;2024-03-29T06:39:01;99255.72;;;19.48;60.59
39449;BME280;25151;45.566;9.382;2024-03-29T06:41:32;99262.88;;;19.49;60.53
39449;BME280;25151;45.566;9.382;2024-03-29T06:44:01;99275.00;;;19.55;60.47
39449;BME280;25151;45.566;9.382;2024-03-29T06:46:29;99279.66;;;19.49;60.49
39449;BME280;25151;45.566;9.382;2024-03-29T06:49:00;99286.00;;;19.50;60.76
39449;BME280;25151;45.566;9.382;2024-03-29T06:51:27;99280.44;;;19.50;60.74
39449;BME280;25151;45.566;9.382;2024-03-29T06:53:54;99271.25;;;19.49;60.67
39449;BME280;25151;45.566;9.382;2024-03-29T06:56:24;99280.28;;;19.53;60.77
39449;BME280;25151;45.566;9.382;2024-03-29T06:58:51;99287.44;;;19.54;60.69
39449;BME280;25151;45.566;9.382;2024-03-29T07:01:18;99299.53;;;19.51;60.85
39449;BME280;25151;45.566;9.382;2024-03-29T07:03:45;99283.81;;;19.45;60.72
39449;BME280;25151;45.566;9.382;2024-03-29T07:06:13;99280.56;;;19.46;60.82
39449;BME280;25151;45.566;9.382;2024-03-29T07:08:40;99293.28;;;19.47;60.59
39449;BME280;25151;45.566;9.382;2024-03-29T07:11:07;99314.75;;;19.50;60.72
39449;BME280;25151;45.566;9.382;2024-03-29T07:13:36;99305.06;;;19.42;60.76
39449;BME280;25151;45.566;9.382;2024-03-29T07:16:03;99317.44;;;19.54;60.72
39449;BME280;25151;45.566;9.382;2024-03-29T07:18:29;99328.16;;;19.55;60.54
39449;BME280;25151;45.566;9.382;2024-03-29T07:20:57;99328.50;;;19.57;60.65
39449;BME280;25151;45.566;9.382;2024-03-29T07:23:25;99303.56;;;19.50;60.54
39449;BME280;25151;45.566;9.382;2024-03-29T07:26:02;99309.22;;;19.59;60.63
39449;BME280;25151;45.566;9.382;2024-03-29T07:28:29;99329.81;;;19.65;60.49
39449;BME280;25151;45.566;9.382;2024-03-29T07:30:55;99333.28;;;19.70;60.45
39449;BME280;25151;45.566;9.382;2024-03-29T07:33:23;99336.06;;;19.70;60.45
39449;BME280;25151;45.566;9.382;2024-03-29T07:35:55;99309.22;;;19.72;60.54
39449;BME280;25151;45.566;9.382;2024-03-29T07:38:22;99313.75;;;19.79;60.60
39449;BME280;25151;45.566;9.382;2024-03-29T07:40:58;99332.13;;;19.80;60.52
39449;BME280;25151;45.566;9.382;2024-03-29T07:43:24;99355.00;;;19.87;60.35
39449;BME280;25151;45.566;9.382;2024-03-29T07:45:50;99364.50;;;19.90;60.37
39449;BME280;25151;45.566;9.382;2024-03-29T07:48:17;99372.00;;;19.93;60.19
39449;BME280;25151;45.566;9.382;2024-03-29T07:50:44;99374.53;;;20.00;60.22
39449;BME280;25151;45.566;9.382;2024-03-29T07:53:11;99366.44;;;20.02;60.18
39449;BME280;25151;45.566;9.382;2024-03-29T07:55:39;99355.78;;;20.10;60.37
39449;BME280;25151;45.566;9.382;2024-03-29T07:58:07;99360.13;;;20.11;60.16
39449;BME280;25151;45.566;9.382;2024-03-29T08:00:38;99369.81;;;20.19;60.13
39449;BME280;25151;45.566;9.382;2024-03-29T08:03:06;99365.03;;;20.20;59.88
39449;BME280;25151;45.566;9.382;2024-03-29T08:05:32;99375.50;;;20.28;60.11
39449;BME280;25151;45.566;9.382;2024-03-29T08:08:01;99373.47;;;20.29;60.06
39449;BME280;25151;45.566;9.382;2024-03-29T08:10:31;99371.63;;;20.35;59.89
39449;BME280;25151;45.566;9.382;2024-03-29T08:13:03;99365.88;;;20.38;59.96
39449;BME280;25151;45.566;9.382;2024-03-29T08:15:32;99362.00;;;20.36;59.94
39449;BME280;25151;45.566;9.382;2024-03-29T08:17:58;99364.53;;;20.43;59.96
39449;BME280;25151;45.566;9.382;2024-03-29T08:20:28;99360.47;;;20.44;59.63
39449;BME280;25151;45.566;9.382;2024-03-29T08:23:00;99340.09;;;20.44;59.55
39449;BME280;25151;45.566;9.382;2024-03-29T08:25:33;99335.91;;;20.48;59.78
39449;BME280;25151;45.566;9.382;2024-03-29T08:28:02;99353.06;;;20.50;59.45
39449;BME280;25151;45.566;9.382;2024-03-29T08:30:28;99366.16;;;20.53;59.21
39449;BME280;25151;45.566;9.382;2024-03-29T08:33:03;99382.94;;;20.53;59.57
39449;BME280;25151;45.566;9.382;2024-03-29T08:35:33;99363.94;;;20.48;59.31
39449;BME280;25151;45.566;9.382;2024-03-29T08:38:00;99367.69;;;20.54;59.43
39449;BME280;25151;45.566;9.382;2024-03-29T08:40:32;99354.94;;;20.53;59.40
39449;BME280;25151;45.566;9.382;2024-03-29T08:42:59;99352.63;;;20.52;59.77
39449;BME280;25151;45.566;9.382;2024-03-29T08:45:27;99360.41;;;20.57;59.60
39449;BME280;25151;45.566;9.382;2024-03-29T08:47:57;99354.94;;;20.53;59.40
39449;BME280;25151;45.566;9.382;2024-03-29T08:50:26;99359.63;;;20.56;59.49
39449;BME280;25151;45.566;9.382;2024-03-29T08:52:53;99355.59;;;20.57;59.43
39449;BME280;25151;45.566;9.382;2024-03-29T08:55:19;99351.53;;;20.58;59.34
39449;BME280;25151;45.566;9.382;2024-03-29T08:57:47;99357.13;;;20.58;59.35
39449;BME280;25151;45.566;9.382;2024-03-29T09:00:15;99351.66;;;20.55;59.68
39449;BME280;25151;45.566;9.382;2024-03-29T09:02:42;99355.91;;;20.59;59.61
39449;BME280;25151;45.566;9.382;2024-03-29T09:05:14;99356.50;;;20.54;59.63
39449;BME280;25151;45.566;9.382;2024-03-29T09:07:41;99354.03;;;20.56;59.41
39449;BME280;25151;45.566;9.382;2024-03-29T09:10:08;99338.34;;;20.59;59.37
39449;BME280;25151;45.566;9.382;2024-03-29T09:12:36;99353.91;;;20.60;59.43
39449;BME280;25151;45.566;9.382;2024-03-29T09:15:02;99347.19;;;20.57;59.42
39449;BME280;25151;45.566;9.382;2024-03-29T09:17:35;99348.88;;;20.55;59.23
39449;BME280;25151;45.566;9.382;2024-03-29T09:20:05;99360.28;;;20.60;59.66
39449;BME280;25151;45.566;9.382;2024-03-29T09:22:34;99357.13;;;20.58;59.58
39449;BME280;25151;45.566;9.382;2024-03-29T09:25:22;99369.94;;;20.59;59.53
39449;BME280;25151;45.566;9.382;2024-03-29T09:27:49;99371.94;;;20.59;59.46
39449;BME280;25151;45.566;9.382;2024-03-29T09:30:16;99375.53;;;20.59;59.74
39449;BME280;25151;45.566;9.382;2024-03-29T09:32:45;99374.88;;;20.55;59.55
39449;BME280;25151;45.566;9.382;2024-03-29T09:35:13;99378.78;;;20.58;59.37
39449;BME280;25151;45.566;9.382;2024-03-29T09:37:39;99386.09;;;20.55;59.41
39449;BME280;25151;45.566;9.382;2024-03-29T09:40:10;99400.41;;;20.57;59.38
39449;BME280;25151;45.566;9.382;2024-03-29T09:42:38;99394.50;;;20.55;59.39
39449;BME280;25151;45.566;9.382;2024-03-29T09:45:05;99403.19;;;20.57;59.48
39449;BME280;25151;45.566;9.382;2024-03-29T09:47:32;99418.44;;;20.56;59.24
39449;BME280;25151;45.566;9.382;2024-03-29T09:50:03;99418.13;;;20.54;59.62
39449;BME280;25151;45.566;9.382;2024-03-29T09:52:33;99398.97;;;20.53;59.67
39449;BME280;25151;45.566;9.382;2024-03-29T09:55:03;99398.22;;;20.52;59.60
39449;BME280;25151;45.566;9.382;2024-03-29T09:57:30;99390.09;;;20.54;59.31
39449;BME280;25151;45.566;9.382;2024-03-29T09:59:57;99387.66;;;20.56;59.52
39449;BME280;25151;45.566;9.382;2024-03-29T10:02:28;99388.56;;;20.53;59.21
39449;BME280;25151;45.566;9.382;2024-03-29T10:04:57;99389.34;;;20.54;59.43
39449;BME280;25151;45.566;9.382;2024-03-29T10:07:24;99392.47;;;20.56;59.52
39449;BME280;25151;45.566;9.382;2024-03-29T10:09:51;99397.28;;;20.55;59.67
39449;BME280;25151;45.566;9.382;2024-03-29T10:12:18;99399.75;;;20.53;59.17
39449;BME280;25151;45.566;9.382;2024-03-29T10:14:48;99396.50;;;20.55;59.16
39449;BME280;25151;45.566;9.382;2024-03-29T10:17:18;99395.72;;;20.54;59.20
39449;BME280;25151;45.566;9.382;2024-03-29T10:19:47;99405.34;;;20.53;59.50
39449;BME280;25151;45.566;9.382;2024-03-29T10:22:14;99393.50;;;20.49;59.47
39449;BME280;25151;45.566;9.382;2024-03-29T10:24:40;99405.34;;;20.53;59.34
39449;BME280;25151;45.566;9.382;2024-03-29T10:27:07;99392.59;;;20.52;59.50
39449;BME280;25151;45.566;9.382;2024-03-29T10:29:34;99387.25;;;20.45;59.48
39449;BME280;25151;45.566;9.382;2024-03-29T10:32:01;99395.41;;;20.52;59.20
39449;BME280;25151;45.566;9.382;2024-03-29T10:34:29;99393.38;;;20.53;59.37
39449;BME280;25151;45.566;9.382;2024-03-29T10:37:02;99391.06;;;20.51;59.28
39449;BME280;25151;45.566;9.382;2024-03-29T10:39:31;99379.84;;;20.51;59.35
39449;BME280;25151;45.566;9.382;2024-03-29T10:42:00;99377.59;;;20.46;59.28
39449;BME280;25151;45.566;9.382;2024-03-29T10:44:27;99368.75;;;20.48;59.25
39449;BME280;25151;45.566;9.382;2024-03-29T10:46:56;99374.69;;;20.50;59.47
39449;BME280;25151;45.566;9.382;2024-03-29T10:49:24;99365.94;;;20.48;59.63
39449;BME280;25151;45.566;9.382;2024-03-29T10:51:51;99375.47;;;20.50;59.41
39449;BME280;25151;45.566;9.382;2024-03-29T10:54:19;99374.78;;;20.46;59.83
39449;BME280;25151;45.566;9.382;2024-03-29T10:56:47;99373.56;;;20.47;59.38
39449;BME280;25151;45.566;9.382;2024-03-29T10:59:25;99367.63;;;20.45;59.31
39449;BME280;25151;45.566;9.382;2024-03-29T11:01:59;99375.47;;;20.50;59.67
39449;BME280;25151;45.566;9.382;2024-03-29T11:04:31;99379.84;;;20.51;59.38
39449;BME280;25151;45.566;9.382;2024-03-29T11:07:04;99385.44;;;20.51;59.38
39449;BME280;25151;45.566;9.382;2024-03-29T11:09:33;99379.19;;;20.47;59.38
39449;BME280;25151;45.566;9.382;2024-03-29T11:12:01;99381.53;;;20.49;59.47
39449;BME280;25151;45.566;9.382;2024-03-29T11:14:37;99381.63;;;20.45;59.58
39449;BME280;25151;45.566;9.382;2024-03-29T11:17:04;99383.53;;;20.48;59.40
39449;BME280;25151;45.566;9.382;2024-03-29T11:19:31;99379.94;;;20.48;59.71
39449;BME280;25151;45.566;9.382;2024-03-29T11:21:59;99376.38;;;20.47;59.66
39449;BME280;25151;45.566;9.382;2024-03-29T11:24:27;99376.03;;;20.45;59.53
39449;BME280;25151;45.566;9.382;2024-03-29T11:26:55;99387.56;;;20.47;59.41
39449;BME280;25151;45.566;9.382;2024-03-29T11:29:22;99380.41;;;20.46;59.47
39449;BME280;25151;45.566;9.382;2024-03-29T11:31:57;99366.38;;;20.46;59.57
39449;BME280;25151;45.566;9.382;2024-03-29T11:34:33;99366.88;;;20.45;59.56
39449;BME280;25151;45.566;9.382;2024-03-29T11:37:15;99362.03;;;20.45;59.80
39449;BME280;25151;45.566;9.382;2024-03-29T11:39:47;99358.94;;;20.43;59.71
39449;BME280;25151;45.566;9.382;2024-03-29T11:42:16;99357.03;;;20.40;59.77
39449;BME280;25151;45.566;9.382;2024-03-29T11:44:43;99355.47;;;20.39;59.80
39449;BME280;25151;45.566;9.382;2024-03-29T11:47:10;99344.72;;;20.37;59.69
39449;BME280;25151;45.566;9.382;2024-03-29T11:49:42;99346.28;;;20.38;59.93
39449;BME280;25151;45.566;9.382;2024-03-29T11:52:11;99342.72;;;20.38;59.48
39449;BME280;25151;45.566;9.382;2024-03-29T11:54:39;99336.81;;;20.36;59.60
39449;BME280;25151;45.566;9.382;2024-03-29T11:57:05;99341.47;;;20.39;59.91
39449;BME280;25151;45.566;9.382;2024-03-29T11:59:31;99345.84;;;20.40;59.90
39449;BME280;25151;45.566;9.382;2024-03-29T12:01:58;99345.19;;;20.36;59.95
39449;BME280;25151;45.566;9.382;2024-03-29T12:04:25;99345.50;;;20.38;59.82
39449;BME280;25151;45.566;9.382;2024-03-29T12:06:59;99334.91;;;20.33;60.07
39449;BME280;25151;45.566;9.382;2024-03-29T12:09:26;99336.03;;;20.35;59.74
39449;BME280;25151;45.566;9.382;2024-03-29T12:11:53;99331.63;;;20.34;59.85
39449;BME280;25151;45.566;9.382;2024-03-29T12:14:20;99343.47;;;20.38;60.04
39449;BME280;25151;45.566;9.382;2024-03-29T12:16:48;99328.06;;;20.34;60.06
39449;BME280;25151;45.566;9.382;2024-03-29T12:19:23;99328.41;;;20.36;60.12
39449;BME280;25151;45.566;9.382;2024-03-29T12:21:51;99325.72;;;20.32;60.19
39449;BME280;25151;45.566;9.382;2024-03-29T12:24:18;99321.69;;;20.33;60.05
39449;BME280;25151;45.566;9.382;2024-03-29T12:26:45;99319.34;;;20.32;60.07
39449;BME280;25151;45.566;9.382;2024-03-29T12:29:13;99323.25;;;20.34;60.16
39449;BME280;25151;45.566;9.382;2024-03-29T12:31:40;99322.47;;;20.34;59.97
39449;BME280;25151;45.566;9.382;2024-03-29T12:34:07;99326.38;;;20.36;60.15
39449;BME280;25151;45.566;9.382;2024-03-29T12:36:33;99318.09;;;20.33;60.13
39449;BME280;25151;45.566;9.382;2024-03-29T12:39:00;99321.22;;;20.35;60.04
39449;BME280;25151;45.566;9.382;2024-03-29T12:41:29;99318.41;;;20.35;59.81
39449;BME280;25151;45.566;9.382;2024-03-29T12:43:58;99315.63;;;20.35;59.98
39449;BME280;25151;45.566;9.382;2024-03-29T12:46:26;99312.50;;;20.33;60.26
39449;BME280;25151;45.566;9.382;2024-03-29T12:49:02;99317.19;;;20.36;60.19
39449;BME280;25151;45.566;9.382;2024-03-29T12:51:29;99310.97;;;20.32;60.19
39449;BME280;25151;45.566;9.382;2024-03-29T12:54:04;99316.88;;;20.34;60.09
39449;BME280;25151;45.566;9.382;2024-03-29T12:56:31;99326.19;;;20.31;60.28
39449;BME280;25151;45.566;9.382;2024-03-29T12:58:59;99320.91;;;20.33;60.18
39449;BME280;25151;45.566;9.382;2024-03-29T13:01:26;99322.16;;;20.32;60.43
39449;BME280;25151;45.566;9.382;2024-03-29T13:03:52;99319.78;;;20.30;60.33
39449;BME280;25151;45.566;9.382;2024-03-29T13:06:18;99319.34;;;20.32;60.31